createdAt,value
2022-10-05T00:00:16.185Z,100.00
2022-10-05T00:02:44.581Z,100.00
2022-10-05T00:05:21.510Z,100.00
2022-10-05T00:07:49.917Z,100.00
2022-10-05T00:10:20.778Z,100.00
2022-10-05T00:12:50.087Z,100.00
2022-10-05T00:15:20.520Z,100.00
2022-10-05T00:17:48.484Z,100.00
2022-10-05T00:20:23.373Z,100.00
2022-10-05T00:22:56.670Z,100.00
2022-10-05T00:25:26.518Z,100.00
2022-10-05T00:27:57.781Z,100.00
2022-10-05T00:30:27.659Z,100.00
2022-10-05T00:32:59.500Z,100.00
2022-10-05T00:35:29.474Z,100.00
2022-10-05T00:37:57.675Z,100.00
2022-10-05T00:40:36.804Z,100.00
2022-10-05T00:43:22.885Z,100.00
2022-10-05T00:45:56.190Z,100.00
2022-10-05T00:48:33.797Z,100.00
2022-10-05T00:51:18.564Z,100.00
2022-10-05T00:53:55.806Z,100.00
2022-10-05T00:56:44.701Z,100.00
2022-10-05T00:59:25.901Z,100.00
2022-10-05T01:02:01.055Z,100.00
2022-10-05T01:04:40.697Z,100.00
2022-10-05T01:07:17.069Z,100.00
2022-10-05T01:09:54.360Z,100.00
2022-10-05T01:12:28.201Z,100.00
2022-10-05T01:15:06.336Z,100.00
2022-10-05T01:17:41.884Z,100.00
2022-10-05T01:20:27.875Z,100.00
2022-10-05T01:23:20.232Z,100.00
2022-10-05T01:25:58.060Z,100.00
2022-10-05T01:28:31.516Z,100.00
2022-10-05T01:31:05.357Z,100.00
2022-10-05T01:33:38.432Z,100.00
2022-10-05T01:36:15.601Z,100.00
2022-10-05T01:38:49.827Z,100.00
2022-10-05T01:41:32.320Z,100.00
2022-10-05T01:44:06.848Z,100.00
2022-10-05T01:46:39.983Z,100.00
2022-10-05T01:49:24.407Z,100.00
2022-10-05T01:52:05.556Z,100.00
2022-10-05T01:54:43.182Z,100.00
2022-10-05T01:57:22.665Z,100.00
2022-10-05T02:00:05.292Z,100.00
2022-10-05T02:02:37.596Z,100.00
2022-10-05T02:05:09.966Z,100.00
2022-10-05T02:07:42.555Z,100.00
2022-10-05T02:10:18.214Z,100.00
2022-10-05T02:12:50.941Z,100.00
2022-10-05T02:15:25.199Z,100.00
2022-10-05T02:17:59.201Z,100.00
2022-10-05T02:20:31.283Z,100.00
2022-10-05T02:23:03.776Z,100.00
2022-10-05T02:25:36.317Z,100.00
2022-10-05T02:28:11.152Z,100.00
2022-10-05T02:30:44.409Z,100.00
2022-10-05T02:33:19.260Z,100.00
2022-10-05T02:35:47.585Z,100.00
2022-10-05T02:38:26.367Z,100.00
2022-10-05T02:41:02.889Z,100.00
2022-10-05T02:43:40.403Z,100.00
2022-10-05T02:46:20.596Z,100.00
2022-10-05T02:48:57.718Z,100.00
2022-10-05T02:51:29.908Z,100.00
2022-10-05T02:54:08.201Z,100.00
2022-10-05T02:56:46.223Z,100.00
2022-10-05T02:59:24.248Z,100.00
2022-10-05T03:01:58.320Z,100.00
2022-10-05T03:04:35.597Z,100.00
2022-10-05T03:07:15.335Z,100.00
2022-10-05T03:09:50.622Z,100.00
2022-10-05T03:12:43.869Z,100.00
2022-10-05T03:15:25.342Z,100.00
2022-10-05T03:18:05.152Z,100.00
2022-10-05T03:20:43.921Z,100.00
2022-10-05T03:23:19.440Z,100.00
2022-10-05T03:26:04.183Z,100.00
2022-10-05T03:28:38.343Z,100.00
2022-10-05T03:31:14.499Z,100.00
2022-10-05T03:33:50.007Z,100.00
2022-10-05T03:36:27.554Z,100.00
2022-10-05T03:39:03.091Z,100.00
2022-10-05T03:41:38.362Z,100.00
2022-10-05T03:44:19.645Z,100.00
2022-10-05T03:47:12.828Z,100.00
2022-10-05T03:49:53.794Z,100.00
2022-10-05T03:52:27.486Z,100.00
2022-10-05T03:55:00.836Z,100.00
2022-10-05T03:57:33.648Z,100.00
2022-10-05T04:00:06.662Z,100.00
2022-10-05T04:02:41.049Z,100.00
2022-10-05T04:05:18.335Z,100.00
2022-10-05T04:07:52.210Z,100.00
2022-10-05T04:10:25.448Z,100.00
2022-10-05T04:12:59.965Z,100.00
2022-10-05T04:15:33.356Z,100.00
2022-10-05T04:18:06.744Z,100.00
2022-10-05T04:20:44.213Z,100.00
2022-10-05T04:23:22.502Z,100.00
2022-10-05T04:25:52.999Z,100.00
2022-10-05T04:28:32.031Z,100.00
2022-10-05T04:31:04.914Z,100.00
2022-10-05T04:33:33.785Z,100.00
2022-10-05T04:36:24.768Z,100.00
2022-10-05T04:39:04.753Z,100.00
2022-10-05T04:41:52.050Z,100.00
2022-10-05T04:44:36.777Z,100.00
2022-10-05T04:47:29.298Z,100.00
2022-10-05T04:50:19.047Z,100.00
2022-10-05T04:52:56.502Z,100.00
2022-10-05T04:55:31.935Z,100.00
2022-10-05T04:58:07.426Z,100.00
2022-10-05T05:00:50.603Z,100.00
2022-10-05T05:03:46.333Z,100.00
2022-10-05T05:06:26.006Z,100.00
2022-10-05T05:09:21.573Z,100.00
2022-10-05T05:12:05.094Z,100.00
2022-10-05T05:14:48.029Z,100.00
2022-10-05T05:17:31.998Z,100.00
2022-10-05T05:20:13.788Z,100.00
2022-10-05T05:22:49.966Z,100.00
2022-10-05T05:25:35.147Z,100.00
2022-10-05T05:28:16.828Z,100.00
2022-10-05T05:30:50.059Z,100.00
2022-10-05T05:33:24.389Z,100.00
2022-10-05T05:36:19.458Z,100.00
2022-10-05T05:38:57.150Z,100.00
2022-10-05T05:41:37.836Z,100.00
2022-10-05T05:44:18.568Z,100.00
2022-10-05T05:47:09.611Z,100.00
2022-10-05T05:49:51.013Z,100.00
2022-10-05T05:52:25.106Z,100.00
2022-10-05T05:55:00.797Z,100.00
2022-10-05T05:57:36.190Z,100.00
2022-10-05T06:00:08.914Z,100.00
2022-10-05T06:02:42.341Z,100.00
2022-10-05T06:05:25.300Z,100.00
2022-10-05T06:07:55.772Z,100.00
2022-10-05T06:10:32.629Z,100.00
2022-10-05T06:13:08.938Z,100.00
2022-10-05T06:15:43.108Z,100.00
2022-10-05T06:18:13.497Z,100.00
2022-10-05T06:20:45.620Z,100.00
2022-10-05T06:23:18.507Z,100.00
2022-10-05T06:26:10.913Z,100.00
2022-10-05T06:28:40.717Z,100.00
2022-10-05T06:31:25.629Z,100.00
2022-10-05T06:33:57.496Z,100.00
2022-10-05T06:36:41.972Z,100.00
2022-10-05T06:39:32.993Z,100.00
2022-10-05T06:42:27.982Z,100.00
2022-10-05T06:45:03.210Z,100.00
2022-10-05T06:47:39.354Z,100.00
2022-10-05T06:50:16.883Z,100.00
2022-10-05T06:52:59.481Z,100.00
2022-10-05T06:55:37.195Z,100.00
2022-10-05T06:58:18.001Z,100.00
2022-10-05T07:00:53.845Z,100.00
2022-10-05T07:03:32.617Z,100.00
2022-10-05T07:06:08.086Z,100.00
2022-10-05T07:09:01.922Z,100.00
2022-10-05T07:11:44.275Z,100.00
2022-10-05T07:14:25.546Z,100.00
2022-10-05T07:17:06.421Z,100.00
2022-10-05T07:19:42.291Z,100.00
2022-10-05T07:22:34.486Z,100.00
2022-10-05T07:25:12.290Z,100.00
2022-10-05T07:27:50.985Z,100.00
2022-10-05T07:30:21.557Z,100.00
2022-10-05T07:33:01.441Z,100.00
2022-10-05T07:35:58.616Z,100.00
2022-10-05T07:38:33.095Z,100.00
2022-10-05T07:41:07.589Z,100.00
2022-10-05T07:44:01.505Z,100.00
2022-10-05T07:46:41.201Z,100.00
2022-10-05T07:49:18.936Z,100.00
2022-10-05T07:51:51.273Z,100.00
2022-10-05T07:54:24.297Z,100.00
2022-10-05T07:56:57.008Z,100.00
2022-10-05T07:59:35.754Z,100.00
2022-10-05T08:02:13.437Z,100.00
2022-10-05T08:04:53.301Z,100.00
2022-10-05T08:10:04.534Z,100.00
2022-10-05T08:12:37.482Z,100.00
2022-10-05T08:15:13.225Z,100.00
2022-10-05T08:17:50.278Z,100.00
2022-10-05T08:20:30.574Z,100.00
2022-10-05T08:23:03.446Z,100.00
2022-10-05T08:25:42.315Z,100.00
2022-10-05T08:28:19.142Z,100.00
2022-10-05T08:30:56.395Z,100.00
2022-10-05T08:33:28.423Z,100.00
2022-10-05T08:36:08.038Z,100.00
2022-10-05T08:38:36.531Z,100.00
2022-10-05T08:41:24.666Z,100.00
2022-10-05T08:44:22.376Z,100.00
2022-10-05T08:47:17.657Z,100.00
2022-10-05T08:50:16.096Z,100.00
2022-10-05T08:53:12.397Z,100.00
2022-10-05T08:55:53.212Z,100.00
2022-10-05T08:58:47.954Z,100.00
2022-10-05T09:01:24.313Z,100.00
2022-10-05T09:04:07.877Z,100.00
2022-10-05T09:07:01.000Z,100.00
2022-10-05T09:10:05.565Z,100.00
2022-10-05T09:13:08.482Z,100.00
2022-10-05T09:16:00.400Z,100.00
2022-10-05T09:18:56.102Z,100.00
2022-10-05T09:21:42.262Z,100.00
2022-10-05T09:24:29.567Z,100.00
2022-10-05T09:27:11.703Z,100.00
2022-10-05T09:30:09.324Z,100.00
2022-10-05T09:33:00.430Z,100.00
2022-10-05T09:36:02.177Z,100.00
2022-10-05T09:38:50.949Z,100.00
2022-10-05T09:41:46.930Z,100.00
2022-10-05T09:44:56.875Z,100.00
2022-10-05T09:48:04.888Z,100.00
2022-10-05T09:51:08.077Z,100.00
2022-10-05T09:54:21.453Z,95.59
2022-10-05T09:57:33.877Z,90.11
2022-10-05T10:00:26.978Z,79.36
2022-10-05T10:03:22.786Z,79.74
2022-10-05T10:06:40.111Z,76.60
2022-10-05T10:09:32.187Z,75.99
2022-10-05T10:12:23.379Z,75.84
2022-10-05T10:15:25.226Z,75.67
2022-10-05T10:18:22.581Z,73.22
2022-10-05T10:21:09.185Z,70.98
2022-10-05T10:24:00.327Z,70.45
2022-10-05T10:26:56.718Z,68.45
2022-10-05T10:29:58.216Z,69.06
2022-10-05T10:33:05.531Z,68.93
2022-10-05T10:35:37.122Z,66.73
2022-10-05T10:38:29.324Z,70.59
2022-10-05T10:41:33.354Z,68.34
2022-10-05T10:44:40.019Z,67.22
2022-10-05T10:47:45.632Z,64.66
2022-10-05T10:50:52.614Z,62.31
2022-10-05T10:54:03.604Z,64.13
2022-10-05T10:56:50.348Z,61.19
2022-10-05T10:59:49.002Z,60.38
2022-10-05T11:02:30.162Z,58.85
2022-10-05T11:05:31.083Z,60.52
2022-10-05T11:08:37.818Z,58.61
2022-10-05T11:11:35.554Z,57.07
2022-10-05T11:14:45.468Z,57.35
2022-10-05T11:17:31.893Z,57.18
2022-10-05T11:20:17.617Z,58.77
2022-10-05T11:22:59.017Z,56.65
2022-10-05T11:25:59.079Z,55.52
2022-10-05T11:28:50.230Z,56.23
2022-10-05T11:31:50.421Z,54.35
2022-10-05T11:34:40.231Z,54.57
2022-10-05T11:37:45.108Z,52.43
2022-10-05T11:40:34.571Z,51.70
2022-10-05T11:43:53.644Z,51.94
2022-10-05T11:46:29.822Z,51.78
2022-10-05T11:49:13.050Z,51.45
2022-10-05T11:51:52.185Z,51.68
2022-10-05T11:54:46.574Z,51.54
2022-10-05T11:57:37.759Z,51.84
2022-10-05T12:00:15.249Z,51.55
2022-10-05T12:03:18.484Z,52.23
2022-10-05T12:06:05.432Z,50.96
2022-10-05T12:08:47.192Z,49.96
2022-10-05T12:11:32.997Z,50.07
2022-10-05T12:14:07.608Z,51.00
2022-10-05T12:16:42.954Z,50.42
2022-10-05T12:19:18.849Z,47.35
2022-10-05T12:21:53.277Z,47.27
2022-10-05T12:24:28.109Z,47.05
2022-10-05T12:27:00.181Z,47.12
2022-10-05T12:29:33.520Z,46.88
2022-10-05T12:32:05.763Z,47.52
2022-10-05T12:34:47.850Z,47.40
2022-10-05T12:37:39.377Z,47.70
2022-10-05T12:40:24.747Z,48.26
2022-10-05T12:43:01.531Z,47.74
2022-10-05T12:45:38.614Z,47.10
2022-10-05T12:48:23.700Z,47.98
2022-10-05T12:50:56.820Z,47.82
2022-10-05T12:53:39.905Z,47.21
2022-10-05T12:56:13.583Z,48.37
2022-10-05T12:59:02.501Z,47.09
2022-10-05T13:01:40.239Z,47.07
2022-10-05T13:04:20.580Z,48.46
2022-10-05T13:07:15.051Z,47.33
2022-10-05T13:09:55.406Z,47.81
2022-10-05T13:12:36.043Z,47.90
2022-10-05T13:15:16.928Z,48.62
2022-10-05T13:17:51.865Z,46.86
2022-10-05T13:20:28.762Z,48.12
2022-10-05T13:23:06.769Z,47.13
2022-10-05T13:25:43.344Z,46.41
2022-10-05T13:28:19.689Z,45.09
2022-10-05T13:30:58.547Z,48.60
2022-10-05T13:33:40.422Z,48.64
2022-10-05T13:36:15.744Z,48.14
2022-10-05T13:38:56.342Z,46.39
2022-10-05T13:41:38.739Z,47.42
2022-10-05T13:44:18.076Z,44.99
2022-10-05T13:46:50.421Z,45.38
2022-10-05T13:49:26.427Z,46.97
2022-10-05T13:52:01.321Z,47.68
2022-10-05T13:54:39.786Z,47.48
2022-10-05T13:57:23.294Z,48.32
2022-10-05T13:59:55.153Z,45.74
2022-10-05T14:02:39.816Z,47.42
2022-10-05T14:05:18.161Z,47.40
2022-10-05T14:07:53.261Z,48.32
2022-10-05T14:10:38.429Z,47.99
2022-10-05T14:13:33.153Z,48.08
2022-10-05T14:16:19.726Z,47.53
2022-10-05T14:18:59.644Z,47.57
2022-10-05T14:21:30.780Z,48.29
2022-10-05T14:24:42.336Z,48.27
2022-10-05T14:27:23.366Z,49.92
2022-10-05T14:30:00.657Z,48.65
2022-10-05T14:32:32.442Z,49.79
2022-10-05T14:35:14.073Z,49.96
2022-10-05T14:37:51.612Z,51.72
2022-10-05T14:40:34.328Z,50.42
2022-10-05T14:43:18.715Z,50.19
2022-10-05T14:46:01.138Z,50.62
2022-10-05T14:48:39.253Z,54.09
2022-10-05T14:51:13.143Z,54.59
2022-10-05T14:53:43.625Z,49.55
2022-10-05T14:56:33.253Z,51.98
2022-10-05T14:59:25.776Z,50.39
2022-10-05T15:02:00.428Z,50.83
2022-10-05T15:04:46.138Z,54.12
2022-10-05T15:07:24.410Z,53.20
2022-10-05T15:10:07.919Z,54.08
2022-10-05T15:12:41.211Z,57.13
2022-10-05T15:15:37.513Z,58.87
2022-10-05T15:18:16.767Z,61.62
2022-10-05T15:20:55.250Z,63.10
2022-10-05T15:23:28.655Z,63.89
2022-10-05T15:26:07.702Z,65.50
2022-10-05T15:29:03.006Z,66.24
2022-10-05T15:31:41.871Z,65.08
2022-10-05T15:34:19.253Z,70.63
2022-10-05T15:36:55.976Z,69.12
2022-10-05T15:39:37.786Z,70.17
2022-10-05T15:42:09.451Z,74.70
2022-10-05T15:44:52.932Z,73.14
2022-10-05T15:47:26.888Z,77.90
2022-10-05T15:50:08.348Z,81.37
2022-10-05T15:52:42.051Z,84.28
2022-10-05T15:55:46.727Z,89.82
2022-10-05T15:58:40.158Z,97.20
2022-10-05T16:01:12.575Z,100.00
2022-10-05T16:03:54.565Z,100.00
2022-10-05T16:06:56.501Z,100.00
2022-10-05T16:09:47.312Z,100.00
2022-10-05T16:12:23.548Z,100.00
2022-10-05T16:14:59.881Z,100.00
2022-10-05T16:17:48.233Z,100.00
2022-10-05T16:20:31.637Z,100.00
2022-10-05T16:23:07.120Z,100.00
2022-10-05T16:25:51.922Z,100.00
2022-10-05T16:28:31.023Z,100.00
2022-10-05T16:31:08.079Z,100.00
2022-10-05T16:33:48.074Z,100.00
2022-10-05T16:36:31.783Z,100.00
2022-10-05T16:39:06.864Z,100.00
2022-10-05T16:42:06.056Z,100.00
2022-10-05T16:44:44.426Z,100.00
2022-10-05T16:47:35.843Z,100.00
2022-10-05T16:50:17.874Z,100.00
2022-10-05T16:52:52.045Z,100.00
2022-10-05T16:55:28.238Z,100.00
2022-10-05T16:58:00.272Z,100.00
2022-10-05T17:00:40.832Z,100.00
2022-10-05T17:03:28.546Z,100.00
2022-10-05T17:06:30.522Z,100.00
2022-10-05T17:09:18.680Z,100.00
2022-10-05T17:12:05.121Z,100.00
2022-10-05T17:14:48.979Z,100.00
2022-10-05T17:17:33.588Z,100.00
2022-10-05T17:20:18.220Z,100.00
2022-10-05T17:22:52.494Z,100.00
2022-10-05T17:25:29.683Z,100.00
2022-10-05T17:28:16.554Z,100.00
2022-10-05T17:31:08.491Z,100.00
2022-10-05T17:34:13.185Z,100.00
2022-10-05T17:36:47.645Z,100.00
2022-10-05T17:39:17.966Z,100.00
2022-10-05T17:41:47.154Z,100.00
2022-10-05T17:44:21.449Z,100.00
2022-10-05T17:46:54.034Z,100.00
2022-10-05T17:49:28.701Z,100.00
2022-10-05T17:52:33.251Z,100.00
2022-10-05T17:55:48.636Z,100.00
2022-10-05T17:59:02.276Z,100.00
2022-10-05T18:01:36.330Z,100.00
2022-10-05T18:04:37.906Z,100.00
2022-10-05T18:07:19.131Z,100.00
2022-10-05T18:09:59.260Z,100.00
2022-10-05T18:12:50.296Z,100.00
2022-10-05T18:15:45.216Z,100.00
2022-10-05T18:18:36.888Z,100.00
2022-10-05T18:21:24.103Z,100.00
2022-10-05T18:24:27.616Z,100.00
2022-10-05T18:27:08.241Z,100.00
2022-10-05T18:30:05.455Z,100.00
2022-10-05T18:32:55.604Z,100.00
2022-10-05T18:35:28.892Z,100.00
2022-10-05T18:38:09.227Z,100.00
2022-10-05T18:40:49.608Z,100.00
2022-10-05T18:43:27.715Z,100.00
2022-10-05T18:46:09.096Z,100.00
2022-10-05T18:48:47.769Z,100.00
2022-10-05T18:51:26.164Z,100.00
2022-10-05T18:54:10.921Z,100.00
2022-10-05T18:56:46.826Z,100.00
2022-10-05T18:59:29.140Z,100.00
2022-10-05T19:02:14.884Z,100.00
2022-10-05T19:04:55.798Z,100.00
2022-10-05T19:07:34.583Z,100.00
2022-10-05T19:10:14.931Z,100.00
2022-10-05T19:13:06.145Z,100.00
2022-10-05T19:15:41.738Z,100.00
2022-10-05T19:18:39.850Z,100.00
2022-10-05T19:21:21.462Z,100.00
2022-10-05T19:24:06.086Z,100.00
2022-10-05T19:26:52.118Z,100.00
2022-10-05T19:29:35.046Z,100.00
2022-10-05T19:32:07.075Z,100.00
2022-10-05T19:34:49.049Z,100.00
2022-10-05T19:37:24.932Z,100.00
2022-10-05T19:39:59.000Z,100.00
2022-10-05T19:42:46.168Z,100.00
2022-10-05T19:45:23.953Z,100.00
2022-10-05T19:48:07.467Z,100.00
2022-10-05T19:50:37.844Z,100.00
2022-10-05T19:53:14.124Z,100.00
2022-10-05T19:55:44.448Z,100.00
2022-10-05T19:58:24.320Z,100.00
2022-10-05T20:01:00.177Z,100.00
2022-10-05T20:03:29.541Z,100.00
2022-10-05T20:05:59.169Z,100.00
2022-10-05T20:08:31.882Z,100.00
2022-10-05T20:11:08.444Z,100.00
2022-10-05T20:13:36.698Z,100.00
2022-10-05T20:16:38.525Z,100.00
2022-10-05T20:19:49.097Z,100.00
2022-10-05T20:22:28.709Z,100.00
2022-10-05T20:24:58.608Z,100.00
2022-10-05T20:27:38.842Z,100.00
2022-10-05T20:30:08.567Z,100.00
2022-10-05T20:32:38.563Z,100.00
2022-10-05T20:35:07.903Z,100.00
2022-10-05T20:37:36.771Z,100.00
2022-10-05T20:40:05.628Z,100.00
2022-10-05T20:42:33.503Z,100.00
2022-10-05T20:45:01.540Z,100.00
2022-10-05T20:47:29.493Z,100.00
2022-10-05T20:49:58.990Z,100.00
2022-10-05T20:52:26.999Z,100.00
2022-10-05T20:54:56.636Z,100.00
2022-10-05T20:57:25.052Z,100.00
2022-10-05T20:59:52.983Z,100.00
2022-10-05T21:02:20.931Z,100.00
2022-10-05T21:04:49.103Z,100.00
2022-10-05T21:07:21.133Z,100.00
2022-10-05T21:09:49.091Z,100.00
2022-10-05T21:12:17.382Z,100.00
2022-10-05T21:14:46.227Z,100.00
2022-10-05T21:17:14.241Z,100.00
2022-10-05T21:19:42.175Z,100.00
2022-10-05T21:22:11.215Z,100.00
2022-10-05T21:24:42.056Z,100.00
2022-10-05T21:27:10.675Z,100.00
2022-10-05T21:29:41.051Z,100.00
2022-10-05T21:32:11.740Z,100.00
2022-10-05T21:34:40.240Z,100.00
2022-10-05T21:37:08.838Z,100.00
2022-10-05T21:39:36.854Z,100.00
2022-10-05T21:42:06.384Z,100.00
2022-10-05T21:44:34.370Z,100.00
2022-10-05T21:47:02.563Z,100.00
2022-10-05T21:49:31.250Z,100.00
2022-10-05T21:52:01.373Z,100.00
2022-10-05T21:54:29.436Z,100.00
2022-10-05T21:56:58.711Z,100.00
2022-10-05T21:59:34.037Z,100.00
2022-10-05T22:02:02.461Z,100.00
2022-10-05T22:04:30.465Z,100.00
2022-10-05T22:06:58.712Z,100.00
2022-10-05T22:09:26.953Z,100.00
2022-10-05T22:11:54.982Z,100.00
2022-10-05T22:14:23.165Z,100.00
2022-10-05T22:16:53.529Z,100.00
2022-10-05T22:19:21.854Z,100.00
2022-10-05T22:21:49.804Z,100.00
2022-10-05T22:24:17.663Z,100.00
2022-10-05T22:26:51.451Z,100.00
2022-10-05T22:29:20.651Z,100.00
2022-10-05T22:31:49.301Z,100.00
2022-10-05T22:34:19.315Z,100.00
2022-10-05T22:36:47.540Z,100.00
2022-10-05T22:39:16.278Z,100.00
2022-10-05T22:41:44.662Z,100.00
2022-10-05T22:44:12.709Z,100.00
2022-10-05T22:46:40.707Z,100.00
2022-10-05T22:49:08.679Z,100.00
2022-10-05T22:51:38.176Z,100.00
2022-10-05T22:54:06.635Z,100.00
2022-10-05T22:56:34.523Z,100.00
2022-10-05T22:59:02.429Z,100.00
2022-10-05T23:01:30.374Z,100.00
2022-10-05T23:03:58.326Z,100.00
2022-10-05T23:06:26.756Z,100.00
2022-10-05T23:08:56.447Z,100.00
2022-10-05T23:11:26.378Z,100.00
2022-10-05T23:13:56.952Z,100.00
2022-10-05T23:16:27.573Z,100.00
2022-10-05T23:18:56.055Z,100.00
2022-10-05T23:21:26.122Z,100.00
2022-10-05T23:23:55.394Z,100.00
2022-10-05T23:26:26.465Z,100.00
2022-10-05T23:28:54.795Z,100.00
2022-10-05T23:31:24.614Z,100.00
2022-10-05T23:33:52.832Z,100.00
2022-10-05T23:36:23.032Z,100.00
2022-10-05T23:38:51.537Z,100.00
2022-10-05T23:41:21.178Z,100.00
2022-10-05T23:43:49.277Z,100.00
2022-10-05T23:46:17.943Z,100.00
2022-10-05T23:48:45.900Z,100.00
2022-10-05T23:51:15.573Z,100.00
2022-10-05T23:53:43.862Z,100.00
2022-10-05T23:56:11.843Z,100.00
2022-10-05T23:58:41.376Z,100.00
